Time;durP1;ratioP1;P1;durP2;ratioP2;P2;SDS_P1;SDS_P2;PMS_P1;PMS_P2;Temp;Humidity;BMP_temperature;BMP_pressure;BME280_temperature;BME280_humidity;BME280_pressure;Samples;Min_cycle;Max_cycle;Signal;HPM_P1;HPM_P2
2023/04/27 00:01:11;;;;;;;13.73;6.57;;;;;;;8.93;57.33;102242.34;4957086;28;20038;-77
2023/04/27 00:03:40;;;;;;;14.80;6.55;;;;;;;8.98;56.92;102247.72;4952285;28;20288;-77
2023/04/27 00:06:09;;;;;;;17.20;6.70;;;;;;;9.03;56.70;102243.59;4914436;28;20041;-77
2023/04/27 00:08:40;;;;;;;12.30;6.03;;;;;;;9.03;56.92;102238.41;4953593;28;20034;-77
2023/04/27 00:11:05;;;;;;;11.63;6.10;;;;;;;9.01;56.99;102245.28;4957356;28;20427;-76
2023/04/27 00:13:31;;;;;;;15.05;6.80;;;;;;;8.99;57.16;102233.00;4951223;28;20031;-78
2023/04/27 00:15:59;;;;;;;12.00;6.35;;;;;;;9.05;56.92;102228.97;4957656;28;20039;-76
2023/04/27 00:18:32;;;;;;;12.60;6.75;;;;;;;9.06;57.36;102238.53;4959677;28;20118;-77
2023/04/27 00:20:58;;;;;;;11.60;5.63;;;;;;;9.05;56.91;102231.56;4957346;28;20503;-77
2023/04/27 00:23:23;;;;;;;11.43;6.35;;;;;;;9.00;56.98;102243.50;4962443;28;20050;-77
2023/04/27 00:25:48;;;;;;;13.45;6.53;;;;;;;8.94;56.80;102238.03;4949010;28;20087;-78
2023/04/27 00:28:14;;;;;;;12.95;6.28;;;;;;;8.84;57.25;102235.88;4952872;28;20042;-77
2023/04/27 00:30:39;;;;;;;13.30;6.70;;;;;;;8.81;57.06;102231.44;4961983;28;20041;-77
2023/04/27 00:33:26;;;;;;;12.32;6.35;;;;;;;8.81;57.18;102233.13;4957736;28;20403;-77
2023/04/27 00:35:52;;;;;;;10.63;6.25;;;;;;;8.81;57.52;102227.94;4948934;28;20114;-78
2023/04/27 00:38:26;;;;;;;14.55;6.05;;;;;;;8.76;57.64;102229.47;4941900;28;20154;-77
2023/04/27 00:40:51;;;;;;;;;;;;;;;8.70;57.70;102230.09;4946844;28;20143;-77
2023/04/27 00:43:29;;;;;;;10.18;5.53;;;;;;;8.70;57.63;102216.22;4962870;28;20424;-77
2023/04/27 00:45:55;;;;;;;11.30;6.00;;;;;;;8.69;57.88;102220.50;4961076;28;20117;-77
2023/04/27 00:48:21;;;;;;;10.93;5.47;;;;;;;8.67;57.76;102211.75;4965048;28;20507;-76
2023/04/27 00:50:47;;;;;;;11.00;5.68;;;;;;;8.65;57.84;102215.13;4968982;28;20035;-77
2023/04/27 00:53:13;;;;;;;11.18;5.75;;;;;;;8.62;58.04;102212.38;4963778;28;20066;-77
2023/04/27 00:55:56;;;;;;;9.13;5.32;;;;;;;8.61;58.11;102215.78;4967034;28;20034;-77
2023/04/27 00:58:28;;;;;;;11.50;5.68;;;;;;;8.57;58.38;102219.09;4963548;28;20130;-77
2023/04/27 01:00:54;;;;;;;9.00;5.18;;;;;;;8.49;58.29;102218.75;4926471;28;20111;-78
2023/04/27 01:03:19;;;;;;;11.55;5.47;;;;;;;8.51;58.55;102218.03;4965867;28;20035;-78
2023/04/27 01:05:48;;;;;;;14.40;5.80;;;;;;;8.44;58.54;102218.56;4967293;28;20042;-79
2023/04/27 01:08:19;;;;;;;11.40;5.45;;;;;;;8.46;58.58;102221.25;4962079;28;20035;-78
2023/04/27 01:10:51;;;;;;;10.95;5.75;;;;;;;8.45;58.48;102219.47;4965101;28;20053;-79
2023/04/27 01:13:19;;;;;;;10.27;5.50;;;;;;;8.32;59.22;102211.94;4951912;28;20042;-76
2023/04/27 01:15:47;;;;;;;10.32;5.63;;;;;;;8.37;58.85;102216.53;4949273;28;20046;-76
2023/04/27 01:18:13;;;;;;;8.88;5.22;;;;;;;8.38;59.00;102209.63;4959105;28;20045;-76
2023/04/27 01:20:44;;;;;;;8.02;4.85;;;;;;;8.36;59.05;102208.66;4962373;28;20042;-76
2023/04/27 01:23:16;;;;;;;10.43;5.63;;;;;;;8.34;59.01;102203.41;4958709;28;20046;-77
2023/04/27 01:25:47;;;;;;;11.75;5.60;;;;;;;8.32;59.08;102193.75;4964479;28;20126;-78
2023/04/27 01:28:12;;;;;;;10.23;5.55;;;;;;;8.29;59.50;102196.22;4960124;28;20038;-76
2023/04/27 01:30:44;;;;;;;10.73;5.80;;;;;;;8.26;59.98;102194.34;4962455;28;20035;-76
2023/04/27 01:33:12;;;;;;;9.25;5.70;;;;;;;8.19;60.08;102194.91;4960320;28;20046;-76
2023/04/27 01:35:40;;;;;;;12.32;5.85;;;;;;;8.10;60.76;102197.13;4965944;28;20484;-76
2023/04/27 01:38:08;;;;;;;9.93;5.70;;;;;;;8.19;59.98;102197.50;4963966;28;20162;-77
2023/04/27 01:40:34;;;;;;;13.23;6.05;;;;;;;8.16;60.32;102192.19;4956572;28;20034;-79
2023/04/27 01:42:59;;;;;;;11.63;6.10;;;;;;;8.22;60.35;102188.97;4959766;28;20061;-77
2023/04/27 01:45:25;;;;;;;12.10;6.20;;;;;;;8.23;60.10;102185.56;4965028;28;20475;-76
2023/04/27 01:47:54;;;;;;;11.43;5.65;;;;;;;8.23;60.07;102190.75;4961692;28;20038;-76
2023/04/27 01:50:29;;;;;;;11.20;5.68;;;;;;;8.22;60.13;102186.38;4962408;28;20502;-76
2023/04/27 01:52:54;;;;;;;11.45;6.07;;;;;;;8.19;60.15;102191.41;4959825;28;20034;-77
2023/04/27 01:55:19;;;;;;;12.02;5.78;;;;;;;8.15;60.40;102198.19;4953405;28;20039;-77
2023/04/27 01:57:51;;;;;;;12.80;5.97;;;;;;;8.14;60.42;102196.41;4963887;28;20057;-77
2023/04/27 02:00:20;;;;;;;11.13;5.57;;;;;;;8.12;60.98;102204.13;4960435;28;20038;-77
2023/04/27 02:02:52;;;;;;;10.98;5.32;;;;;;;8.20;60.92;102188.00;4962526;28;20046;-76
2023/04/27 02:05:18;;;;;;;9.68;5.78;;;;;;;8.25;61.23;102182.19;4974238;23;20058;-43
2023/04/27 02:07:43;;;;;;;9.05;5.43;;;;;;;8.35;61.18;102179.22;4968500;28;20114;-43
2023/04/27 02:10:09;;;;;;;11.93;5.80;;;;;;;8.38;61.10;102181.03;4962219;28;20050;-41
2023/04/27 02:12:35;;;;;;;8.90;5.28;;;;;;;8.37;61.42;102172.34;4951487;28;20039;-41
2023/04/27 02:15:02;;;;;;;9.07;5.35;;;;;;;8.48;60.79;102170.19;4947224;28;20590;-44
2023/04/27 02:17:28;;;;;;;8.52;5.35;;;;;;;8.51;60.24;102168.63;4952600;28;20035;-41
2023/04/27 02:19:53;;;;;;;10.77;5.82;;;;;;;8.41;61.37;102166.47;4950198;28;20781;-44
2023/04/27 02:22:18;;;;;;;13.18;5.53;;;;;;;8.50;60.67;102166.84;4953149;28;20059;-42
2023/04/27 02:24:43;;;;;;;9.88;5.20;;;;;;;8.32;60.42;102170.38;4953312;28;20067;-42
2023/04/27 02:27:09;;;;;;;8.98;5.18;;;;;;;8.58;60.24;102168.91;4948801;28;20228;-41
2023/04/27 02:29:37;;;;;;;9.68;5.68;;;;;;;8.58;59.18;102166.28;4948539;28;20091;-42
2023/04/27 02:32:04;;;;;;;16.15;5.18;;;;;;;8.83;58.42;102166.50;4944641;28;20039;-43
2023/04/27 02:34:29;;;;;;;9.25;5.30;;;;;;;8.98;57.73;102167.09;4945578;28;20351;-43
2023/04/27 02:36:55;;;;;;;8.65;4.82;;;;;;;8.96;57.24;102167.03;4942962;28;20031;-42
2023/04/27 02:39:20;;;;;;;9.60;5.05;;;;;;;8.93;57.45;102166.91;4945574;28;20035;-42
2023/04/27 02:41:45;;;;;;;11.95;5.13;;;;;;;8.97;56.96;102173.13;4945888;28;20035;-42
2023/04/27 02:44:11;;;;;;;10.35;5.30;;;;;;;8.78;57.30;102165.41;4945367;28;20074;-41
2023/04/27 02:46:36;;;;;;;11.15;5.20;;;;;;;8.94;56.28;102167.81;4949415;28;20041;-42
2023/04/27 02:49:01;;;;;;;8.73;4.82;;;;;;;9.00;56.37;102173.25;4942578;28;20031;-43
2023/04/27 02:51:27;;;;;;;11.75;5.38;;;;;;;8.94;56.46;102167.81;4945342;28;20023;-41
2023/04/27 02:53:53;;;;;;;9.85;5.45;;;;;;;8.84;57.00;102170.88;4941700;28;20449;-41
2023/04/27 02:56:18;;;;;;;9.00;5.05;;;;;;;8.84;56.87;102176.94;4944988;28;20115;-43
2023/04/27 02:58:43;;;;;;;10.95;5.28;;;;;;;8.79;56.70;102173.25;4944706;28;20085;-41
2023/04/27 03:01:09;;;;;;;9.50;5.85;;;;;;;8.70;57.09;102183.28;4941232;28;20126;-44
2023/04/27 03:03:35;;;;;;;12.82;5.80;;;;;;;8.60;57.52;102181.13;4944326;28;20035;-45
2023/04/27 03:06:00;;;;;;;10.20;5.60;;;;;;;8.57;57.57;102178.41;4941085;28;20410;-40
2023/04/27 03:08:26;;;;;;;12.95;6.03;;;;;;;8.54;57.87;102181.75;4945244;28;20436;-44
2023/04/27 03:10:51;;;;;;;13.10;6.07;;;;;;;8.60;58.15;102177.66;4941365;28;20031;-40
2023/04/27 03:13:17;;;;;;;12.45;6.07;;;;;;;8.57;58.39;102182.72;4944438;28;20035;-41
2023/04/27 03:15:42;;;;;;;10.50;6.00;;;;;;;8.54;58.00;102186.94;4944103;28;20206;-41
2023/04/27 03:18:07;;;;;;;12.27;6.10;;;;;;;8.52;58.27;102179.94;4940734;28;20078;-42
2023/04/27 03:20:32;;;;;;;10.30;5.50;;;;;;;8.49;58.09;102179.78;4943594;28;20520;-42
2023/04/27 03:22:58;;;;;;;12.35;5.95;;;;;;;8.43;58.50;102176.91;4941099;28;20064;-40
2023/04/27 03:25:23;;;;;;;9.90;5.90;;;;;;;8.06;59.93;102185.69;4944520;28;20038;-45
2023/04/27 03:27:49;;;;;;;10.40;5.68;;;;;;;8.35;59.49;102184.41;4943888;28;20409;-42
2023/04/27 03:30:14;;;;;;;10.93;6.18;;;;;;;8.29;59.00;102183.22;4940910;28;20134;-45
2023/04/27 03:32:40;;;;;;;13.05;6.60;;;;;;;8.41;58.70;102181.19;4944354;28;20192;-42
2023/04/27 03:35:05;;;;;;;10.30;5.80;;;;;;;8.34;58.50;102177.44;4940837;28;20452;-41
2023/04/27 03:37:31;;;;;;;11.85;5.93;;;;;;;8.44;58.20;102181.31;4943342;28;20039;-41
2023/04/27 03:39:56;;;;;;;11.80;6.43;;;;;;;8.49;58.15;102183.28;4941071;28;20038;-43
2023/04/27 03:42:22;;;;;;;12.40;6.20;;;;;;;8.41;58.62;102174.28;4944204;28;20421;-44
2023/04/27 03:44:47;;;;;;;12.20;6.40;;;;;;;8.43;58.25;102183.00;4943995;28;20035;-42
2023/04/27 03:47:12;;;;;;;10.02;5.70;;;;;;;8.42;58.12;102189.03;4940677;28;20047;-39
2023/04/27 03:49:38;;;;;;;12.48;5.97;;;;;;;8.35;58.34;102188.72;4944368;28;20032;-42
2023/04/27 03:52:03;;;;;;;11.43;5.93;;;;;;;8.32;58.37;102189.47;4941340;28;20183;-41
2023/04/27 03:54:30;;;;;;;11.38;6.03;;;;;;;8.26;58.69;102191.75;4944056;28;20406;-42
2023/04/27 03:56:56;;;;;;;11.48;5.88;;;;;;;8.29;58.52;102189.31;4940939;28;20042;-42
2023/04/27 03:59:21;;;;;;;10.10;5.95;;;;;;;8.29;58.20;102188.41;4943807;28;20028;-42
2023/04/27 04:01:46;;;;;;;11.27;5.88;;;;;;;8.38;57.84;102194.91;4943532;28;20040;-43
2023/04/27 04:04:12;;;;;;;11.20;6.03;;;;;;;8.31;58.12;102197.19;4940025;28;20174;-45
2023/04/27 04:06:37;;;;;;;11.20;5.93;;;;;;;8.20;57.68;102198.41;4944076;28;20035;-43
2023/04/27 04:09:03;;;;;;;9.75;5.80;;;;;;;8.41;57.66;102207.16;4943108;28;20031;-40
2023/04/27 04:11:28;;;;;;;13.55;5.80;;;;;;;8.37;57.43;102197.44;4945844;28;20039;-42
2023/04/27 04:13:54;;;;;;;12.02;6.18;;;;;;;8.36;57.63;102203.47;4941370;28;20497;-42
2023/04/27 04:16:19;;;;;;;11.52;5.95;;;;;;;8.28;57.81;102213.50;4951082;28;20035;-43
2023/04/27 04:18:45;;;;;;;11.35;5.65;;;;;;;8.42;57.29;102215.00;4954183;28;20127;-42
2023/04/27 04:21:10;;;;;;;10.25;5.53;;;;;;;8.38;57.24;102214.81;4964021;28;20498;-44
2023/04/27 04:23:36;;;;;;;10.50;5.93;;;;;;;8.33;57.42;102214.63;4952087;28;20475;-41
2023/04/27 04:26:02;;;;;;;11.55;5.60;;;;;;;8.38;57.24;102218.31;4946539;28;20035;-43
2023/04/27 04:28:28;;;;;;;10.15;5.18;;;;;;;8.32;57.66;102218.03;4948513;28;20416;-41
2023/04/27 04:30:53;;;;;;;8.32;5.15;;;;;;;8.15;57.54;102218.97;4944422;28;20035;-44
2023/04/27 04:33:19;;;;;;;13.23;5.85;;;;;;;8.17;58.23;102213.84;4948210;28;20050;-44
2023/04/27 04:35:45;;;;;;;12.32;5.63;;;;;;;8.13;58.32;102213.72;4948137;28;20199;-40
2023/04/27 04:38:10;;;;;;;11.90;5.40;;;;;;;8.37;57.84;102221.72;4947238;28;20035;-42
2023/04/27 04:40:39;;;;;;;9.63;5.53;;;;;;;8.39;57.34;102220.09;4952345;28;20042;-42
2023/04/27 04:43:05;;;;;;;13.77;5.57;;;;;;;8.26;57.56;102216.84;4950945;28;20089;-44
2023/04/27 04:45:30;;;;;;;11.30;5.72;;;;;;;8.65;56.74;102225.53;4955049;28;20039;-42
2023/04/27 04:47:56;;;;;;;9.65;5.32;;;;;;;8.74;56.19;102229.38;4949677;28;20122;-43
2023/04/27 04:50:22;;;;;;;12.38;5.55;;;;;;;8.83;55.97;102221.09;4949292;28;20033;-45
2023/04/27 04:52:47;;;;;;;9.18;5.72;;;;;;;8.84;55.94;102226.34;4947281;28;20467;-44
2023/04/27 04:55:14;;;;;;;9.18;5.30;;;;;;;8.90;55.74;102221.41;4944032;28;20039;-42
2023/04/27 04:57:39;;;;;;;11.50;5.47;;;;;;;9.04;55.80;102221.97;4947119;28;20062;-42
2023/04/27 05:00:09;;;;;;;11.15;5.57;;;;;;;9.02;55.53;102225.34;4943934;28;20489;-43
2023/04/27 05:02:35;;;;;;;10.13;5.38;;;;;;;9.01;55.11;102228.78;4947028;28;20501;-44
2023/04/27 05:05:00;;;;;;;9.27;5.60;;;;;;;9.13;55.69;102221.47;4943327;28;20039;-46
2023/04/27 05:07:26;;;;;;;10.45;5.57;;;;;;;9.07;55.77;102226.44;4946792;28;20494;-42
2023/04/27 05:09:51;;;;;;;9.68;5.55;;;;;;;9.04;55.52;102229.78;4942579;28;20039;-40
2023/04/27 05:12:16;;;;;;;12.70;5.75;;;;;;;9.01;56.13;102228.78;4946912;28;20043;-44
2023/04/27 05:14:43;;;;;;;11.98;6.10;;;;;;;8.95;56.13;102232.91;4945574;28;20134;-43
2023/04/27 05:17:08;;;;;;;11.13;6.00;;;;;;;8.90;56.59;102234.41;4944041;28;20036;-42
2023/04/27 05:19:33;;;;;;;15.90;6.10;;;;;;;9.03;56.71;102243.59;4946613;28;20035;-45
2023/04/27 05:21:58;;;;;;;11.73;5.93;;;;;;;9.07;56.77;102242.03;4944161;28;20040;-42
2023/04/27 05:24:25;;;;;;;12.27;6.22;;;;;;;9.16;56.72;102239.78;4947546;28;20040;-41
2023/04/27 05:26:50;;;;;;;10.25;5.40;;;;;;;9.32;56.27;102239.59;4943181;28;20118;-43
2023/04/27 05:29:16;;;;;;;9.75;5.65;;;;;;;9.63;54.19;102242.59;4949229;28;20122;-44
2023/04/27 05:31:42;;;;;;;9.38;5.43;;;;;;;9.82;53.11;102238.94;4948553;28;20039;-46
2023/04/27 05:34:08;;;;;;;11.55;5.60;;;;;;;9.99;52.36;102237.91;4944724;28;20031;-44
2023/04/27 05:36:34;;;;;;;9.43;5.55;;;;;;;10.36;51.49;102234.06;4947581;28;20034;-41
2023/04/27 05:39:00;;;;;;;11.25;6.22;;;;;;;10.69;50.43;102237.84;4944724;28;20031;-41
2023/04/27 05:41:25;;;;;;;10.45;5.88;;;;;;;10.61;50.59;102235.81;4947754;28;20398;-42
2023/04/27 05:43:52;;;;;;;11.75;6.03;;;;;;;10.79;49.98;102233.84;4943584;28;20031;-40
2023/04/27 05:46:17;;;;;;;11.23;5.40;;;;;;;10.90;49.29;102235.97;4946855;28;20027;-41
2023/04/27 05:48:43;;;;;;;12.27;5.75;;;;;;;10.44;50.10;102237.81;4945943;28;20043;-42
2023/04/27 05:51:08;;;;;;;13.23;6.45;;;;;;;10.38;49.90;102241.09;4943299;28;20120;-45
2023/04/27 05:53:33;;;;;;;17.75;6.35;;;;;;;10.78;49.74;102238.16;4946692;28;20038;-41
2023/04/27 05:56:00;;;;;;;12.57;6.63;;;;;;;11.05;48.44;102234.69;4943239;28;20457;-40
2023/04/27 05:58:25;;;;;;;11.73;6.43;;;;;;;11.39;48.12;102232.34;4946506;28;20078;-41
2023/04/27 06:00:52;;;;;;;12.85;6.38;;;;;;;11.98;46.83;102231.56;4942362;28;20031;-42
2023/04/27 06:03:18;;;;;;;10.68;6.10;;;;;;;12.23;46.50;102232.28;4945985;28;20043;-44
2023/04/27 06:05:43;;;;;;;11.13;6.20;;;;;;;12.68;44.44;102238.78;4945938;28;20387;-43
2023/04/27 06:08:10;;;;;;;11.80;6.22;;;;;;;13.25;43.58;102244.59;4942488;28;20122;-42
2023/04/27 06:10:35;;;;;;;12.35;6.13;;;;;;;14.03;42.41;102234.16;4945594;28;20032;-44
2023/04/27 06:13:00;;;;;;;11.10;6.05;;;;;;;14.84;40.10;102246.25;4941905;28;20043;-41
2023/04/27 06:15:26;;;;;;;11.02;6.00;;;;;;;15.50;39.42;102240.31;4946501;28;20118;-44
2023/04/27 06:17:51;;;;;;;11.05;6.03;;;;;;;16.43;36.99;102237.19;4942658;28;20043;-45
2023/04/27 06:20:16;;;;;;;13.52;6.38;;;;;;;16.09;37.45;102231.56;4946319;28;20494;-43
2023/04/27 06:22:42;;;;;;;11.73;5.65;;;;;;;16.88;36.18;102237.69;4948291;28;20051;-41
2023/04/27 06:25:08;;;;;;;8.73;5.60;;;;;;;17.63;35.36;102222.44;4945455;28;20039;-43
2023/04/27 06:27:33;;;;;;;10.65;5.95;;;;;;;18.14;33.02;102225.34;4947923;28;20039;-43
2023/04/27 06:29:59;;;;;;;11.27;6.10;;;;;;;18.08;33.11;102224.44;4941850;28;20403;-41
2023/04/27 06:32:24;;;;;;;8.57;5.13;;;;;;;18.67;32.18;102223.75;4946538;28;20035;-41
2023/04/27 06:34:50;;;;;;;11.57;4.93;;;;;;;18.74;31.24;102212.31;4942521;28;20379;-42
2023/04/27 06:37:16;;;;;;;9.10;5.20;;;;;;;19.28;31.19;102220.25;4947017;28;20039;-44
2023/04/27 06:39:43;;;;;;;10.40;5.65;;;;;;;18.39;32.29;102218.41;4947567;28;20059;-40
2023/04/27 06:42:08;;;;;;;10.68;5.40;;;;;;;19.32;30.99;102224.66;4944483;28;20035;-40
2023/04/27 06:44:33;;;;;;;10.30;5.70;;;;;;;18.43;31.74;102229.84;4948287;28;20023;-46
2023/04/27 06:46:58;;;;;;;10.15;5.72;;;;;;;18.57;32.34;102231.69;4951085;28;20035;-43
2023/04/27 06:49:24;;;;;;;9.18;5.25;;;;;;;19.84;30.00;102220.16;4964329;28;20043;-39
2023/04/27 06:51:49;;;;;;;12.57;5.15;;;;;;;19.72;30.24;102221.94;4942871;28;20067;-40
2023/04/27 06:54:15;;;;;;;8.85;5.05;;;;;;;18.55;31.71;102227.25;4945293;28;20486;-43
2023/04/27 06:56:41;;;;;;;8.63;5.22;;;;;;;19.09;31.39;102221.13;4948268;28;20368;-44
2023/04/27 06:59:07;;;;;;;11.80;5.88;;;;;;;19.11;31.17;102224.66;4945042;28;20038;-40
2023/04/27 07:01:33;;;;;;;8.95;5.60;;;;;;;18.50;31.79;102228.97;4946645;28;20090;-41
2023/04/27 07:03:58;;;;;;;11.43;5.43;;;;;;;19.99;30.57;102221.88;4944105;28;20063;-41
2023/04/27 07:06:24;;;;;;;8.25;5.05;;;;;;;20.86;28.23;102221.41;4947576;28;20404;-44
2023/04/27 07:08:50;;;;;;;9.63;5.30;;;;;;;19.90;29.11;102215.72;4944491;28;20035;-45
2023/04/27 07:11:15;;;;;;;7.13;4.22;;;;;;;19.86;30.29;102217.50;4947088;28;20488;-44
2023/04/27 07:13:41;;;;;;;8.10;4.88;;;;;;;19.63;29.60;102220.22;4948445;28;20036;-41
2023/04/27 07:16:06;;;;;;;7.35;4.50;;;;;;;20.45;28.12;102217.25;4944087;28;20108;-43
2023/04/27 07:18:32;;;;;;;5.97;3.97;;;;;;;19.11;29.73;102221.13;4947836;28;20113;-42
2023/04/27 07:20:57;;;;;;;8.45;4.80;;;;;;;19.68;28.55;102215.81;4944610;28;20043;-42
2023/04/27 07:23:23;;;;;;;8.27;4.38;;;;;;;19.22;29.99;102212.31;4945319;28;20031;-43
2023/04/27 07:25:49;;;;;;;8.43;4.22;;;;;;;19.46;28.21;102219.38;4944983;28;20082;-44
2023/04/27 07:28:14;;;;;;;8.63;4.72;;;;;;;19.28;28.77;102212.31;4942317;28;20050;-40
2023/04/27 07:30:41;;;;;;;7.63;4.30;;;;;;;18.49;30.46;102225.44;4950097;28;20031;-41
2023/04/27 07:33:06;;;;;;;7.25;4.15;;;;;;;18.98;28.91;102223.78;4946528;28;20129;-39
2023/04/27 07:35:32;;;;;;;11.13;4.40;;;;;;;18.16;30.21;102234.16;4949954;28;20055;-41
2023/04/27 07:38:00;;;;;;;6.18;4.05;;;;;;;19.12;29.29;102225.56;4945159;28;20547;-41
2023/04/27 07:40:26;;;;;;;6.90;4.15;;;;;;;18.94;28.49;102223.78;4948899;28;20512;-43
2023/04/27 07:42:51;;;;;;;9.38;4.10;;;;;;;18.38;29.14;102226.31;4947044;28;20054;-40
2023/04/27 07:45:16;;;;;;;9.40;4.38;;;;;;;17.85;30.27;102227.00;4949913;28;20126;-41
2023/04/27 07:47:42;;;;;;;8.13;4.20;;;;;;;17.94;30.57;102220.84;4949402;28;20408;-42
2023/04/27 07:50:09;;;;;;;7.65;4.30;;;;;;;18.25;31.20;102222.75;4945293;28;20118;-43
2023/04/27 07:52:34;;;;;;;7.40;4.45;;;;;;;18.14;30.60;102222.72;4951497;28;20493;-42
2023/04/27 07:55:00;;;;;;;9.18;4.68;;;;;;;18.16;30.73;102213.06;4948128;28;20130;-44
2023/04/27 07:57:26;;;;;;;9.40;4.40;;;;;;;18.05;31.49;102224.44;4949496;28;20035;-41
2023/04/27 07:59:52;;;;;;;10.60;4.38;;;;;;;18.08;31.13;102219.16;4944125;28;20098;-41
2023/04/27 08:02:17;;;;;;;7.95;4.15;;;;;;;18.01;31.48;102217.38;4947988;28;20087;-42
2023/04/27 08:04:43;;;;;;;7.72;3.83;;;;;;;18.36;31.12;102217.53;4944317;28;20040;-42
2023/04/27 08:07:08;;;;;;;8.80;4.25;;;;;;;17.41;32.25;102216.16;4944039;28;20099;-41
2023/04/27 08:09:33;;;;;;;10.35;4.70;;;;;;;17.06;33.73;102215.00;4947557;28;20090;-42
2023/04/27 08:11:59;;;;;;;11.98;4.10;;;;;;;17.16;33.41;102212.44;4944331;28;20043;-43
2023/04/27 08:14:24;;;;;;;7.70;4.18;;;;;;;16.80;33.97;102215.66;4947316;28;20036;-41
2023/04/27 08:16:50;;;;;;;7.90;4.18;;;;;;;16.68;33.42;102204.13;4944288;28;20035;-41
2023/04/27 08:19:17;;;;;;;8.68;4.65;;;;;;;17.13;33.70;102206.28;4947664;28;20023;-43
2023/04/27 08:21:42;;;;;;;6.72;4.00;;;;;;;16.94;33.07;102203.50;4980269;23;20058;-43
2023/04/27 08:24:08;;;;;;;8.73;4.22;;;;;;;17.15;33.44;102207.16;4967932;28;20031;-47
2023/04/27 08:26:34;;;;;;;6.95;4.35;;;;;;;16.81;33.83;102209.53;4971982;28;20138;-44
2023/04/27 08:28:59;;;;;;;6.80;4.03;;;;;;;16.87;33.38;102209.59;4968300;28;20031;-42
2023/04/27 08:31:25;;;;;;;8.02;4.63;;;;;;;16.77;33.85;102210.34;4972146;28;20027;-44
2023/04/27 08:33:51;;;;;;;7.57;3.88;;;;;;;16.29;34.52;102209.81;4964692;28;20030;-43
2023/04/27 08:36:27;;;;;;;7.60;3.97;;;;;;;16.86;34.44;102215.72;4958020;28;20043;-45
2023/04/27 08:38:53;;;;;;;8.45;4.20;;;;;;;16.53;33.56;102210.09;4962271;28;20106;-45
2023/04/27 08:41:20;;;;;;;6.68;3.40;;;;;;;16.57;33.83;102211.91;4970528;28;20042;-45
2023/04/27 08:43:45;;;;;;;7.95;3.60;;;;;;;16.49;33.94;102203.03;4971212;28;20097;-44
2023/04/27 08:46:11;;;;;;;7.82;3.90;;;;;;;16.82;33.88;102205.16;4955298;28;20057;-44
2023/04/27 08:48:36;;;;;;;8.15;3.88;;;;;;;16.86;33.34;102201.66;4969205;28;20027;-42
2023/04/27 08:51:05;;;;;;;7.60;3.90;;;;;;;17.04;33.23;102200.06;4966197;28;20043;-43
2023/04/27 08:53:32;;;;;;;5.82;3.90;;;;;;;17.21;33.09;102197.53;4969051;28;20027;-43
2023/04/27 08:55:57;;;;;;;8.35;4.03;;;;;;;16.97;33.24;102203.50;4968368;28;20066;-46
2023/04/27 08:58:35;;;;;;;7.50;4.20;;;;;;;17.17;33.34;102202.78;4969758;28;20038;-46
2023/04/27 09:01:04;;;;;;;9.55;3.80;;;;;;;17.21;33.44;102196.66;4964558;28;20094;-46
2023/04/27 09:03:30;;;;;;;8.52;3.90;;;;;;;17.28;32.70;102193.19;4971489;28;20035;-47
2023/04/27 09:05:55;;;;;;;6.75;4.15;;;;;;;17.38;32.68;102195.06;4968155;28;20121;-46
2023/04/27 09:08:20;;;;;;;5.93;3.72;;;;;;;16.98;31.83;102196.50;4967517;28;20702;-44
2023/04/27 09:10:47;;;;;;;10.32;3.80;;;;;;;17.30;32.48;102194.09;4967694;28;20073;-51
2023/04/27 09:13:13;;;;;;;7.28;3.63;;;;;;;16.80;32.24;102196.34;4964119;28;20401;-45
2023/04/27 09:15:43;;;;;;;5.03;3.10;;;;;;;16.67;32.22;102194.47;4966623;28;20043;-42
2023/04/27 09:18:15;;;;;;;7.25;3.30;;;;;;;16.40;30.78;102192.41;4963316;28;20058;-47
2023/04/27 09:20:45;;;;;;;5.93;3.28;;;;;;;16.42;31.83;102190.66;4966374;28;20042;-43
2023/04/27 09:23:25;;;;;;;4.90;3.25;;;;;;;16.17;32.40;102186.88;4961876;28;20039;-45
2023/04/27 09:25:50;;;;;;;6.90;3.20;;;;;;;16.37;32.33;102190.63;4962869;28;20034;-46
2023/04/27 09:28:15;;;;;;;6.25;3.50;;;;;;;16.39;31.65;102186.28;4967176;28;20041;-44
2023/04/27 09:30:49;;;;;;;7.55;4.25;;;;;;;16.43;32.66;102195.06;4966673;28;20059;-45
2023/04/27 09:33:21;;;;;;;7.57;4.18;;;;;;;16.93;33.12;102193.84;4964085;28;20071;-47
2023/04/27 09:35:47;;;;;;;9.02;4.30;;;;;;;16.67;32.28;102192.72;4966818;28;20039;-45
2023/04/27 09:38:13;;;;;;;8.65;4.32;;;;;;;16.43;32.94;102200.34;4965747;28;20065;-44
2023/04/27 09:40:39;;;;;;;8.93;4.50;;;;;;;16.32;32.44;102208.13;4970667;28;20034;-42
2023/04/27 09:43:06;;;;;;;8.93;4.03;;;;;;;16.78;32.96;102204.22;4966887;28;20042;-42
2023/04/27 09:45:32;;;;;;;8.02;4.10;;;;;;;16.97;33.46;102192.09;4971135;28;20037;-45
2023/04/27 09:48:00;;;;;;;7.60;4.40;;;;;;;16.57;32.75;102201.38;4965996;28;20035;-44
2023/04/27 09:50:25;;;;;;;8.45;4.38;;;;;;;16.68;32.44;102193.59;4968866;28;20035;-41
2023/04/27 09:52:51;;;;;;;7.30;4.70;;;;;;;16.82;32.79;102198.13;4964726;28;20509;-44
2023/04/27 09:55:27;;;;;;;6.00;4.22;;;;;;;16.98;33.87;102193.88;4965988;28;20045;-47
2023/04/27 09:58:49;;;;;;;9.30;4.93;;;;;;;17.04;32.92;102192.16;4952173;28;20041;-45
2023/04/27 10:01:23;;;;;;;11.15;4.80;;;;;;;17.49;31.59;102189.84;4939235;28;20039;-44
2023/04/27 10:04:06;;;;;;;9.60;5.00;;;;;;;17.18;32.27;102188.75;4943923;29;20047;-45
2023/04/27 10:06:52;;;;;;;8.50;5.03;;;;;;;17.39;32.53;102186.25;4955720;28;20038;-42
2023/04/27 10:09:25;;;;;;;8.30;5.32;;;;;;;17.22;31.68;102183.50;4961814;28;20349;-46
2023/04/27 10:11:52;;;;;;;7.63;5.07;;;;;;;16.97;31.50;102186.81;4962187;28;20043;-46
2023/04/27 10:14:20;;;;;;;8.27;4.88;;;;;;;17.66;31.03;102194.34;4965363;28;20125;-47
2023/04/27 10:16:50;;;;;;;9.73;5.30;;;;;;;17.73;31.28;102190.00;4965014;28;20058;-44
2023/04/27 10:19:16;;;;;;;10.55;5.00;;;;;;;17.78;32.21;102190.91;4962654;28;20154;-44
2023/04/27 10:21:52;;;;;;;9.40;5.20;;;;;;;17.71;31.68;102184.72;4965543;28;20039;-43
2023/04/27 10:24:18;;;;;;;8.35;5.18;;;;;;;17.39;32.61;102180.97;4962674;28;20429;-45
2023/04/27 10:26:47;;;;;;;10.45;5.55;;;;;;;17.60;30.22;102185.50;4968225;28;20031;-47
2023/04/27 10:29:16;;;;;;;8.20;5.40;;;;;;;17.62;30.42;102195.22;4967869;28;20501;-43
2023/04/27 10:31:44;;;;;;;9.95;5.85;;;;;;;17.21;32.09;102183.47;4968205;28;20035;-43
2023/04/27 10:34:14;;;;;;;9.52;5.57;;;;;;;17.18;31.61;102191.38;4961995;28;22890;-43
2023/04/27 10:36:40;;;;;;;10.02;5.72;;;;;;;17.04;32.05;102178.09;4965447;28;20042;-43
2023/04/27 10:39:15;;;;;;;7.60;5.20;;;;;;;17.18;32.49;102173.81;4962398;28;20034;-45
2023/04/27 10:41:57;;;;;;;10.32;5.15;;;;;;;16.93;29.69;102179.78;4965221;28;20468;-46
2023/04/27 10:44:28;;;;;;;8.10;5.22;;;;;;;16.85;29.94;102170.91;4964286;28;20030;-45
2023/04/27 10:46:55;;;;;;;9.98;5.15;;;;;;;17.43;30.45;102170.47;4963863;28;20039;-45
2023/04/27 10:49:22;;;;;;;9.82;5.43;;;;;;;17.41;29.80;102161.66;4968581;28;20636;-44
2023/04/27 10:51:49;;;;;;;8.52;5.60;;;;;;;17.63;30.41;102173.22;4968439;28;20397;-45
2023/04/27 10:54:15;;;;;;;11.32;5.57;;;;;;;17.52;30.65;102172.25;4963511;28;20050;-42
2023/04/27 10:56:40;;;;;;;10.35;5.82;;;;;;;17.53;30.38;102173.16;4962358;28;20026;-46
2023/04/27 10:59:07;;;;;;;9.95;5.25;;;;;;;17.89;29.26;102159.28;4959268;28;20042;-44
2023/04/27 11:01:32;;;;;;;9.70;5.78;;;;;;;17.42;30.55;102154.63;4964705;28;20033;-42
2023/04/27 11:03:59;;;;;;;9.98;5.53;;;;;;;16.99;31.24;102157.00;4960580;28;20419;-46
2023/04/27 11:06:26;;;;;;;7.95;5.20;;;;;;;17.67;30.99;102159.19;4966446;28;20034;-44
2023/04/27 11:08:52;;;;;;;10.05;5.95;;;;;;;17.69;29.96;102154.78;4960634;28;20109;-44
2023/04/27 11:11:19;;;;;;;10.95;6.00;;;;;;;17.77;29.69;102153.09;4964425;28;20446;-46
2023/04/27 11:13:48;;;;;;;9.35;5.55;;;;;;;17.59;29.80;102154.72;4966060;28;20457;-46
2023/04/27 11:16:14;;;;;;;10.38;5.68;;;;;;;17.76;30.21;102146.03;4960587;28;20138;-42
2023/04/27 11:18:39;;;;;;;8.48;5.78;;;;;;;17.61;31.09;102153.91;4963247;28;20034;-43
2023/04/27 11:21:07;;;;;;;15.35;6.30;;;;;;;18.00;30.29;102150.53;4960123;28;20038;-44
2023/04/27 11:23:37;;;;;;;11.23;6.45;;;;;;;17.64;29.06;102142.47;4963557;28;20575;-44